Time,TemperatureF,DewpointF,PressureIn,WindDirection,WindDirectionDegrees,WindSpeedMPH,WindSpeedGustMPH,Humidity,HourlyPrecipIn,Conditions,Clouds,dailyrainin,SoftwareType,DateUTC
2013-02-05 00:00:00,46.0,43.0,-100.00,SW,236,7.0,-999.0,90,0.00,,,-99.99,,2013-02-05 08:00:00,
2013-02-05 00:22:00,46.0,43.0,-100.00,SW,236,7.0,-999.0,90,0.00,,,-99.99,,2013-02-05 08:22:00,
2013-02-05 00:32:00,46.0,43.0,-100.00,SW,236,7.0,-999.0,90,0.00,,,-99.99,,2013-02-05 08:32:00,
2013-02-05 00:42:00,46.0,43.0,-100.00,SW,236,7.0,-999.0,90,0.00,,,-99.99,,2013-02-05 08:42:00,
2013-02-05 00:52:00,46.0,43.0,-100.00,SW,236,7.0,-999.0,90,0.00,,,-99.99,,2013-02-05 08:52:00,
2013-02-05 01:00:00,46.0,43.0,-100.00,WSW,253,7.0,-999.0,90,0.00,,,-99.99,,2013-02-05 09:00:00,
2013-02-05 01:22:00,46.0,43.0,-100.00,WSW,253,7.0,-999.0,90,0.00,,,-99.99,,2013-02-05 09:22:00,
2013-02-05 01:32:00,46.0,43.0,-100.00,WSW,253,7.0,-999.0,90,0.00,,,-99.99,,2013-02-05 09:32:00,
2013-02-05 01:42:00,46.0,43.0,-100.00,WSW,253,7.0,-999.0,90,0.00,,,-99.99,,2013-02-05 09:42:00,
2013-02-05 01:52:00,46.0,43.0,-100.00,WSW,253,7.0,-999.0,90,0.00,,,-99.99,,2013-02-05 09:52:00,
2013-02-05 02:00:00,45.0,43.0,-100.00,North,3,5.0,-999.0,92,0.00,,,-99.99,,2013-02-05 10:00:00,
2013-02-05 02:22:00,45.0,43.0,-100.00,North,3,5.0,-999.0,92,0.00,,,-99.99,,2013-02-05 10:22:00,
2013-02-05 02:32:00,45.0,43.0,-100.00,North,3,5.0,-999.0,92,0.00,,,-99.99,,2013-02-05 10:32:00,
2013-02-05 02:42:00,45.0,43.0,-100.00,North,3,5.0,-999.0,92,0.00,,,-99.99,,2013-02-05 10:42:00,
2013-02-05 02:52:00,45.0,43.0,-100.00,North,3,5.0,-999.0,92,0.00,,,-99.99,,2013-02-05 10:52:00,
2013-02-05 03:00:00,45.0,43.0,-100.00,North,4,3.0,-999.0,95,0.00,,,-99.99,,2013-02-05 11:00:00,
2013-02-05 03:22:00,45.0,43.0,-100.00,North,4,3.0,-999.0,95,0.00,,,-99.99,,2013-02-05 11:22:00,
2013-02-05 03:32:00,45.0,43.0,-100.00,North,4,3.0,-999.0,95,0.00,,,-99.99,,2013-02-05 11:32:00,
2013-02-05 03:42:00,45.0,43.0,-100.00,North,4,3.0,-999.0,95,0.00,,,-99.99,,2013-02-05 11:42:00,
2013-02-05 03:52:00,45.0,43.0,-100.00,North,4,3.0,-999.0,95,0.00,,,-99.99,,2013-02-05 11:52:00,
2013-02-05 04:00:00,45.0,42.0,-100.00,SSW,212,9.0,-999.0,89,0.00,,,-99.99,,2013-02-05 12:00:00,
2013-02-05 04:22:00,45.0,42.0,-100.00,SSW,212,9.0,-999.0,89,0.00,,,-99.99,,2013-02-05 12:22:00,
2013-02-05 04:32:00,45.0,42.0,-100.00,SSW,212,9.0,-999.0,89,0.00,,,-99.99,,2013-02-05 12:32:00,
2013-02-05 04:42:00,45.0,42.0,-100.00,SSW,212,9.0,-999.0,89,0.00,,,-99.99,,2013-02-05 12:42:00,
2013-02-05 04:52:00,45.0,42.0,-100.00,SSW,212,9.0,-999.0,89,0.00,,,-99.99,,2013-02-05 12:52:00,
2013-02-05 05:00:00,45.0,42.0,-100.00,WNW,300,6.0,-999.0,89,0.00,,,-99.99,,2013-02-05 13:00:00,
2013-02-05 05:22:00,45.0,42.0,-100.00,WNW,300,6.0,-999.0,89,0.00,,,-99.99,,2013-02-05 13:22:00,
2013-02-05 05:32:00,45.0,42.0,-100.00,WNW,300,6.0,-999.0,89,0.00,,,-99.99,,2013-02-05 13:32:00,
2013-02-05 05:42:00,45.0,42.0,-100.00,WNW,300,6.0,-999.0,89,0.00,,,-99.99,,2013-02-05 13:42:00,
2013-02-05 05:52:00,45.0,42.0,-100.00,WNW,300,6.0,-999.0,89,0.00,,,-99.99,,2013-02-05 13:52:00,
2013-02-05 06:00:00,45.0,43.0,-100.00,North,9,5.0,-999.0,93,0.00,,,-99.99,,2013-02-05 14:00:00,
2013-02-05 06:32:00,45.0,43.0,-100.00,North,9,5.0,-999.0,93,0.00,,,-99.99,,2013-02-05 14:32:00,
2013-02-05 06:42:00,45.0,43.0,-100.00,North,9,5.0,-999.0,93,0.00,,,-99.99,,2013-02-05 14:42:00,
2013-02-05 06:52:00,45.0,43.0,-100.00,North,9,5.0,-999.0,93,0.00,,,-99.99,,2013-02-05 14:52:00,
2013-02-05 07:00:00,44.0,43.0,-100.00,North,358,5.0,-999.0,95,0.00,,,-99.99,,2013-02-05 15:00:00,
2013-02-05 07:22:00,44.0,43.0,-100.00,North,358,5.0,-999.0,95,0.00,,,-99.99,,2013-02-05 15:22:00,
2013-02-05 07:32:00,44.0,43.0,-100.00,North,358,5.0,-999.0,95,0.00,,,-99.99,,2013-02-05 15:32:00,
2013-02-05 07:42:00,44.0,43.0,-100.00,North,358,5.0,-999.0,95,0.00,,,-99.99,,2013-02-05 15:42:00,
2013-02-05 07:52:00,44.0,43.0,-100.00,North,358,5.0,-999.0,95,0.00,,,-99.99,,2013-02-05 15:52:00,
2013-02-05 08:00:00,44.0,42.0,-100.00,NNW,346,6.0,-999.0,92,0.00,,,-99.99,,2013-02-05 16:00:00,
2013-02-05 08:22:00,44.0,42.0,-100.00,NNW,346,6.0,-999.0,92,0.00,,,-99.99,,2013-02-05 16:22:00,
2013-02-05 08:32:00,44.0,42.0,-100.00,NNW,346,6.0,-999.0,92,0.00,,,-99.99,,2013-02-05 16:32:00,
2013-02-05 08:42:00,44.0,42.0,-100.00,NNW,346,6.0,-999.0,92,0.00,,,-99.99,,2013-02-05 16:42:00,
2013-02-05 08:52:00,44.0,42.0,-100.00,NNW,346,6.0,-999.0,92,0.00,,,-99.99,,2013-02-05 16:52:00,
2013-02-05 09:00:00,45.0,43.0,-100.00,WSW,237,3.0,-999.0,91,0.00,,,-99.99,,2013-02-05 17:00:00,
2013-02-05 09:22:00,45.0,43.0,-100.00,WSW,237,3.0,-999.0,91,0.00,,,-99.99,,2013-02-05 17:22:00,
2013-02-05 09:32:00,45.0,43.0,-100.00,WSW,237,3.0,-999.0,91,0.00,,,-99.99,,2013-02-05 17:32:00,
2013-02-05 09:42:00,45.0,43.0,-100.00,WSW,237,3.0,-999.0,91,0.00,,,-99.99,,2013-02-05 17:42:00,
2013-02-05 09:52:00,45.0,43.0,-100.00,WSW,237,3.0,-999.0,91,0.00,,,-99.99,,2013-02-05 17:52:00,
2013-02-05 10:00:00,47.0,43.0,-100.00,SW,222,5.0,-999.0,86,0.00,,,-99.99,,2013-02-05 18:00:00,
2013-02-05 10:22:00,47.0,43.0,-100.00,SW,222,5.0,-999.0,86,0.00,,,-99.99,,2013-02-05 18:22:00,
2013-02-05 10:32:00,47.0,43.0,-100.00,SW,222,5.0,-999.0,86,0.00,,,-99.99,,2013-02-05 18:32:00,
2013-02-05 10:42:00,47.0,43.0,-100.00,SW,222,5.0,-999.0,86,0.00,,,-99.99,,2013-02-05 18:42:00,
2013-02-05 10:52:00,47.0,43.0,-100.00,SW,222,5.0,-999.0,86,0.00,,,-99.99,,2013-02-05 18:52:00,
2013-02-05 11:00:00,49.0,44.0,-100.00,WSW,248,7.0,-999.0,81,0.00,,,-99.99,,2013-02-05 19:00:00,
2013-02-05 11:22:00,49.0,44.0,-100.00,WSW,248,7.0,-999.0,81,0.00,,,-99.99,,2013-02-05 19:22:00,
2013-02-05 11:32:00,49.0,44.0,-100.00,WSW,248,7.0,-999.0,81,0.00,,,-99.99,,2013-02-05 19:32:00,
2013-02-05 11:42:00,49.0,44.0,-100.00,WSW,248,7.0,-999.0,81,0.00,,,-99.99,,2013-02-05 19:42:00,
2013-02-05 11:52:00,49.0,44.0,-100.00,WSW,248,7.0,-999.0,81,0.00,,,-99.99,,2013-02-05 19:52:00,
2013-02-05 12:00:00,51.0,44.0,-100.00,SW,233,8.0,-999.0,78,0.00,,,-99.99,,2013-02-05 20:00:00,
2013-02-05 12:22:00,51.0,44.0,-100.00,SW,233,8.0,-999.0,78,0.00,,,-99.99,,2013-02-05 20:22:00,
2013-02-05 12:32:00,51.0,44.0,-100.00,SW,233,8.0,-999.0,78,0.00,,,-99.99,,2013-02-05 20:32:00,
2013-02-05 12:42:00,51.0,44.0,-100.00,SW,233,8.0,-999.0,78,0.00,,,-99.99,,2013-02-05 20:42:00,
2013-02-05 12:52:00,51.0,44.0,-100.00,SW,233,8.0,-999.0,78,0.00,,,-99.99,,2013-02-05 20:52:00,
2013-02-05 13:00:00,54.0,46.0,-100.00,WSW,252,15.0,-999.0,75,0.00,,,-99.99,,2013-02-05 21:00:00,
2013-02-05 13:22:00,54.0,46.0,-100.00,WSW,252,15.0,-999.0,75,0.00,,,-99.99,,2013-02-05 21:22:00,
2013-02-05 13:32:00,54.0,46.0,-100.00,WSW,252,15.0,-999.0,75,0.00,,,-99.99,,2013-02-05 21:32:00,
2013-02-05 13:42:00,54.0,46.0,-100.00,WSW,252,15.0,-999.0,75,0.00,,,-99.99,,2013-02-05 21:42:00,
2013-02-05 13:52:00,54.0,46.0,-100.00,WSW,252,15.0,-999.0,75,0.00,,,-99.99,,2013-02-05 21:52:00,
2013-02-05 14:00:00,54.0,46.0,-100.00,WSW,247,13.0,-999.0,75,0.00,,,-99.99,,2013-02-05 22:00:00,
2013-02-05 14:22:00,54.0,46.0,-100.00,WSW,247,13.0,-999.0,75,0.00,,,-99.99,,2013-02-05 22:22:00,
2013-02-05 14:32:00,54.0,46.0,-100.00,WSW,247,13.0,-999.0,75,0.00,,,-99.99,,2013-02-05 22:32:00,
2013-02-05 14:42:00,54.0,46.0,-100.00,WSW,247,13.0,-999.0,75,0.00,,,-99.99,,2013-02-05 22:42:00,
2013-02-05 14:52:00,54.0,46.0,-100.00,WSW,247,13.0,-999.0,75,0.00,,,-99.99,,2013-02-05 22:52:00,
2013-02-05 15:00:00,55.0,47.0,-100.00,WSW,243,21.0,-999.0,73,0.00,,,-99.99,,2013-02-05 23:00:00,
2013-02-05 15:22:00,55.0,47.0,-100.00,WSW,243,21.0,-999.0,73,0.00,,,-99.99,,2013-02-05 23:22:00,
2013-02-05 15:32:00,55.0,47.0,-100.00,WSW,243,21.0,-999.0,73,0.00,,,-99.99,,2013-02-05 23:32:00,
2013-02-05 15:42:00,55.0,47.0,-100.00,WSW,243,21.0,-999.0,73,0.00,,,-99.99,,2013-02-05 23:42:00,
2013-02-05 15:52:00,55.0,47.0,-100.00,WSW,243,21.0,-999.0,73,0.00,,,-99.99,,2013-02-05 23:52:00,
2013-02-05 16:00:00,54.0,47.0,-100.00,WSW,237,10.0,-999.0,74,0.00,,,-99.99,,2013-02-06 00:00:00,
2013-02-05 16:22:00,54.0,47.0,-100.00,WSW,237,10.0,-999.0,74,0.00,,,-99.99,,2013-02-06 00:22:00,
2013-02-05 16:32:00,54.0,47.0,-100.00,WSW,237,10.0,-999.0,74,0.00,,,-99.99,,2013-02-06 00:32:00,
2013-02-05 16:42:00,54.0,47.0,-100.00,WSW,237,10.0,-999.0,74,0.00,,,-99.99,,2013-02-06 00:42:00,
2013-02-05 16:52:00,54.0,47.0,-100.00,WSW,237,10.0,-999.0,74,0.00,,,-99.99,,2013-02-06 00:52:00,
2013-02-05 17:00:00,53.0,47.0,-100.00,West,263,9.0,-999.0,80,0.00,,,-99.99,,2013-02-06 01:00:00,
2013-02-05 17:22:00,53.0,47.0,-100.00,West,263,9.0,-999.0,80,0.00,,,-99.99,,2013-02-06 01:22:00,
2013-02-05 17:32:00,53.0,47.0,-100.00,West,263,9.0,-999.0,80,0.00,,,-99.99,,2013-02-06 01:32:00,
2013-02-05 17:42:00,53.0,47.0,-100.00,West,263,9.0,-999.0,80,0.00,,,-99.99,,2013-02-06 01:42:00,
2013-02-05 17:52:00,53.0,47.0,-100.00,West,263,9.0,-999.0,80,0.00,,,-99.99,,2013-02-06 01:52:00,
2013-02-05 18:00:00,49.0,46.0,-100.00,SW,231,12.0,-999.0,87,0.00,,,-99.99,,2013-02-06 02:00:00,
2013-02-05 18:22:00,49.0,46.0,-100.00,SW,231,12.0,-999.0,87,0.00,,,-99.99,,2013-02-06 02:22:00,
2013-02-05 18:32:00,49.0,46.0,-100.00,SW,231,12.0,-999.0,87,0.00,,,-99.99,,2013-02-06 02:32:00,
2013-02-05 18:42:00,49.0,46.0,-100.00,SW,231,12.0,-999.0,87,0.00,,,-99.99,,2013-02-06 02:42:00,
2013-02-05 18:52:00,49.0,46.0,-100.00,SW,231,12.0,-999.0,87,0.00,,,-99.99,,2013-02-06 02:52:00,
2013-02-05 19:00:00,47.0,45.0,-100.00,WSW,251,10.0,-999.0,92,0.00,,,-99.99,,2013-02-06 03:00:00,
2013-02-05 19:22:00,47.0,45.0,-100.00,WSW,251,10.0,-999.0,92,0.00,,,-99.99,,2013-02-06 03:22:00,
2013-02-05 19:32:00,47.0,45.0,-100.00,WSW,251,10.0,-999.0,92,0.00,,,-99.99,,2013-02-06 03:32:00,
2013-02-05 19:42:00,47.0,45.0,-100.00,WSW,251,10.0,-999.0,92,0.00,,,-99.99,,2013-02-06 03:42:00,
2013-02-05 19:52:00,47.0,45.0,-100.00,WSW,251,10.0,-999.0,92,0.00,,,-99.99,,2013-02-06 03:52:00,
2013-02-05 20:00:00,46.0,44.0,-100.00,WNW,302,10.0,-999.0,93,0.00,,,-99.99,,2013-02-06 04:00:00,
2013-02-05 20:22:00,46.0,44.0,-100.00,WNW,302,10.0,-999.0,93,0.00,,,-99.99,,2013-02-06 04:22:00,
2013-02-05 20:32:00,46.0,44.0,-100.00,WNW,302,10.0,-999.0,93,0.00,,,-99.99,,2013-02-06 04:32:00,
2013-02-05 20:42:00,46.0,44.0,-100.00,WNW,302,10.0,-999.0,93,0.00,,,-99.99,,2013-02-06 04:42:00,
2013-02-05 20:52:00,46.0,44.0,-100.00,WNW,302,10.0,-999.0,93,0.00,,,-99.99,,2013-02-06 04:52:00,
2013-02-05 21:00:00,45.0,43.0,-100.00,WNW,296,9.0,-999.0,91,0.00,,,-99.99,,2013-02-06 05:00:00,
2013-02-05 21:22:00,45.0,43.0,-100.00,WNW,296,9.0,-999.0,91,0.00,,,-99.99,,2013-02-06 05:22:00,
2013-02-05 21:32:00,45.0,43.0,-100.00,WNW,296,9.0,-999.0,91,0.00,,,-99.99,,2013-02-06 05:32:00,
2013-02-05 21:42:00,45.0,43.0,-100.00,WNW,296,9.0,-999.0,91,0.00,,,-99.99,,2013-02-06 05:42:00,
2013-02-05 21:53:00,45.0,43.0,-100.00,WNW,296,9.0,-999.0,91,0.00,,,-99.99,,2013-02-06 05:53:00,
2013-02-05 22:00:00,46.0,42.0,-100.00,West,278,11.0,-999.0,84,0.00,,,-99.99,,2013-02-06 06:00:00,
2013-02-05 22:22:00,46.0,42.0,-100.00,West,278,11.0,-999.0,84,0.00,,,-99.99,,2013-02-06 06:22:00,
2013-02-05 22:32:00,46.0,42.0,-100.00,West,278,11.0,-999.0,84,0.00,,,-99.99,,2013-02-06 06:32:00,
2013-02-05 22:42:00,46.0,42.0,-100.00,West,278,11.0,-999.0,84,0.00,,,-99.99,,2013-02-06 06:42:00,
2013-02-05 22:52:00,46.0,42.0,-100.00,West,278,11.0,-999.0,84,0.00,,,-99.99,,2013-02-06 06:52:00,
2013-02-05 23:00:00,44.0,41.0,-100.00,West,280,7.0,-999.0,87,0.00,,,-99.99,,2013-02-06 07:00:00,
2013-02-05 23:32:00,44.0,41.0,-100.00,West,280,7.0,-999.0,87,0.00,,,-99.99,,2013-02-06 07:32:00,
2013-02-05 23:42:00,44.0,41.0,-100.00,West,280,7.0,-999.0,87,0.00,,,-99.99,,2013-02-06 07:42:00,
2013-02-05 23:52:00,44.0,41.0,-100.00,West,280,7.0,-999.0,87,0.00,,,-99.99,,2013-02-06 07:52:00,